createdAt,value
2019-03-23T00:01:05.663Z,86.83
2019-03-23T00:03:36.539Z,87.29
2019-03-23T00:06:07.308Z,87.71
2019-03-23T00:08:38.308Z,87.22
2019-03-23T00:11:09.139Z,88.40
2019-03-23T00:13:40.101Z,88.43
2019-03-23T00:16:11.034Z,87.90
2019-03-23T00:18:41.875Z,88.27
2019-03-23T00:21:12.733Z,88.82
2019-03-23T00:23:43.601Z,89.32
2019-03-23T00:26:14.379Z,89.78
2019-03-23T00:28:46.344Z,90.00
2019-03-23T00:31:17.209Z,89.95
2019-03-23T00:33:48.095Z,89.90
2019-03-23T00:36:18.940Z,90.38
2019-03-23T00:38:49.954Z,90.87
2019-03-23T00:41:21.107Z,91.22
2019-03-23T00:43:52.888Z,90.76
2019-03-23T00:46:23.791Z,90.48
2019-03-23T00:48:54.688Z,90.08
2019-03-23T00:51:25.558Z,90.15
2019-03-23T00:53:56.388Z,89.72
2019-03-23T00:56:28.111Z,89.63
2019-03-23T00:58:59.050Z,89.64
2019-03-23T01:01:29.975Z,89.33
2019-03-23T01:04:00.788Z,89.29
2019-03-23T01:06:31.595Z,89.45
2019-03-23T01:09:02.588Z,89.67
2019-03-23T01:11:33.952Z,90.03
2019-03-23T01:14:05.005Z,90.15
2019-03-23T01:16:35.802Z,90.20
2019-03-23T01:19:06.695Z,90.14
2019-03-23T01:21:37.606Z,90.34
2019-03-23T01:24:08.572Z,90.36
2019-03-23T01:26:39.469Z,90.31
2019-03-23T01:29:10.247Z,90.06
2019-03-23T01:31:41.086Z,89.98
2019-03-23T01:34:11.891Z,89.79
2019-03-23T01:36:42.648Z,90.01
2019-03-23T01:39:13.698Z,90.21
2019-03-23T01:41:44.494Z,90.26
2019-03-23T01:44:15.250Z,90.07
2019-03-23T01:46:45.974Z,89.93
2019-03-23T01:49:16.774Z,89.92
2019-03-23T01:51:47.674Z,89.73
2019-03-23T01:54:18.485Z,89.79
2019-03-23T01:56:49.255Z,89.65
2019-03-23T01:59:20.054Z,89.01
2019-03-23T02:01:50.987Z,88.11
2019-03-23T02:04:23.033Z,88.35
2019-03-23T02:06:53.788Z,88.54
2019-03-23T02:09:25.727Z,88.57
2019-03-23T02:11:56.528Z,87.98
2019-03-23T02:14:27.442Z,87.87
2019-03-23T02:16:58.242Z,88.15
2019-03-23T02:19:29.917Z,88.16
2019-03-23T02:22:00.785Z,87.07
2019-03-23T02:24:31.723Z,88.24
2019-03-23T02:27:02.523Z,88.51
2019-03-23T02:29:33.397Z,88.11
2019-03-23T02:32:04.288Z,89.81
2019-03-23T02:34:35.605Z,88.38
2019-03-23T02:37:06.437Z,88.06
2019-03-23T02:39:37.303Z,88.32
2019-03-23T02:42:08.264Z,88.95
2019-03-23T02:44:39.089Z,88.85
2019-03-23T02:47:09.842Z,88.36
2019-03-23T02:49:40.651Z,88.05
2019-03-23T02:52:11.565Z,88.03
2019-03-23T02:54:42.568Z,87.70
2019-03-23T02:57:13.389Z,87.66
2019-03-23T02:59:44.267Z,87.66
2019-03-23T03:02:15.153Z,87.39
2019-03-23T03:04:45.943Z,87.82
2019-03-23T03:07:16.717Z,87.25
2019-03-23T03:09:49.086Z,86.68
2019-03-23T03:12:19.930Z,87.00
2019-03-23T03:14:51.270Z,87.01
2019-03-23T03:17:22.068Z,86.83
2019-03-23T03:19:54.625Z,87.27
2019-03-23T03:22:25.341Z,86.89
2019-03-23T03:24:56.426Z,88.25
2019-03-23T03:27:27.228Z,88.81
2019-03-23T03:29:58.534Z,88.46
2019-03-23T03:32:29.335Z,88.30
2019-03-23T03:35:00.675Z,88.26
2019-03-23T03:37:31.524Z,88.20
2019-03-23T03:40:02.369Z,88.33
2019-03-23T03:42:34.302Z,87.95
2019-03-23T03:45:05.368Z,87.51
2019-03-23T03:47:36.177Z,87.55
2019-03-23T03:50:08.140Z,87.75
2019-03-23T03:52:39.005Z,87.56
2019-03-23T03:55:09.923Z,85.76
2019-03-23T03:57:40.701Z,87.54
2019-03-23T04:00:11.714Z,87.41
2019-03-23T04:02:42.505Z,87.50
2019-03-23T04:05:13.376Z,87.78
2019-03-23T04:07:44.229Z,88.03
2019-03-23T04:10:16.668Z,88.28
2019-03-23T04:12:47.489Z,88.29
2019-03-23T04:15:18.967Z,88.60
2019-03-23T04:17:49.776Z,88.64
2019-03-23T04:20:20.567Z,88.59
2019-03-23T04:22:51.396Z,88.40
2019-03-23T04:25:22.508Z,87.86
2019-03-23T04:27:53.313Z,87.08
2019-03-23T04:30:24.108Z,86.83
2019-03-23T04:32:54.923Z,86.72
2019-03-23T04:35:25.810Z,87.21
2019-03-23T04:37:56.592Z,87.59
2019-03-23T04:40:27.619Z,87.52
2019-03-23T04:42:58.408Z,87.55
2019-03-23T04:45:29.266Z,87.33
2019-03-23T04:48:00.060Z,87.26
2019-03-23T04:50:32.027Z,87.47
2019-03-23T04:53:02.881Z,87.24
2019-03-23T04:55:33.891Z,86.92
2019-03-23T04:58:05.086Z,86.66
2019-03-23T05:00:37.034Z,86.47
2019-03-23T05:03:07.776Z,86.45
2019-03-23T05:05:38.671Z,86.73
2019-03-23T05:08:09.508Z,86.93
2019-03-23T05:10:40.306Z,87.12
2019-03-23T05:13:11.565Z,86.58
2019-03-23T05:15:43.851Z,85.57
2019-03-23T05:18:15.673Z,83.93
2019-03-23T05:20:46.503Z,82.61
2019-03-23T05:23:17.249Z,81.26
2019-03-23T05:25:48.303Z,79.23
2019-03-23T05:28:19.052Z,76.14
2019-03-23T05:30:50.942Z,73.34
2019-03-23T05:33:21.702Z,72.16
2019-03-23T05:35:52.560Z,75.26
2019-03-23T05:38:23.365Z,79.26
2019-03-23T05:40:54.370Z,80.46
2019-03-23T05:43:25.112Z,82.34
2019-03-23T05:45:55.985Z,83.79
2019-03-23T05:48:26.700Z,83.62
2019-03-23T05:50:57.523Z,82.94
2019-03-23T05:53:28.302Z,83.46
2019-03-23T05:55:59.277Z,82.55
2019-03-23T05:58:30.085Z,73.40
2019-03-23T06:01:00.982Z,70.13
2019-03-23T06:03:31.702Z,69.26
2019-03-23T06:06:02.532Z,69.78
2019-03-23T06:08:33.324Z,63.41
2019-03-23T06:11:04.256Z,67.60
2019-03-23T06:13:34.998Z,65.41
2019-03-23T06:16:06.092Z,58.84
2019-03-23T06:18:36.894Z,64.42
2019-03-23T06:21:07.664Z,63.83
2019-03-23T06:23:38.483Z,63.33
2019-03-23T06:26:09.355Z,62.77
2019-03-23T06:28:40.086Z,63.77
2019-03-23T06:31:10.830Z,64.03
2019-03-23T06:33:41.595Z,61.21
2019-03-23T06:36:12.441Z,61.58
2019-03-23T06:38:43.143Z,60.69
2019-03-23T06:41:14.146Z,61.80
2019-03-23T06:43:44.878Z,55.31
2019-03-23T06:46:15.684Z,57.50
2019-03-23T06:48:46.462Z,54.25
2019-03-23T06:51:17.258Z,61.27
2019-03-23T06:53:48.001Z,58.81
2019-03-23T06:56:19.031Z,56.28
2019-03-23T06:58:49.764Z,58.00
2019-03-23T07:01:20.541Z,57.65
2019-03-23T07:03:51.271Z,57.05
2019-03-23T07:06:22.145Z,55.26
2019-03-23T07:08:52.902Z,53.79
2019-03-23T07:11:23.818Z,54.09
2019-03-23T07:13:54.575Z,55.63
2019-03-23T07:16:25.600Z,56.68
2019-03-23T07:18:56.331Z,54.00
2019-03-23T07:21:27.135Z,51.77
2019-03-23T07:23:57.910Z,51.57
2019-03-23T07:26:28.767Z,49.31
2019-03-23T07:28:59.493Z,49.09
2019-03-23T07:31:30.296Z,51.69
2019-03-23T07:34:01.059Z,48.31
2019-03-23T07:36:31.876Z,45.38
2019-03-23T07:39:02.655Z,45.48
2019-03-23T07:41:33.537Z,43.80
2019-03-23T07:44:04.395Z,41.67
2019-03-23T07:46:35.293Z,39.46
2019-03-23T07:49:06.163Z,41.79
2019-03-23T07:51:36.947Z,42.08
2019-03-23T07:54:07.722Z,40.28
2019-03-23T07:56:38.700Z,39.99
2019-03-23T07:59:09.474Z,40.17
2019-03-23T08:01:40.272Z,41.21
2019-03-23T08:04:11.061Z,41.92
2019-03-23T08:06:41.907Z,40.64
2019-03-23T08:09:20.368Z,40.04
2019-03-23T08:11:45.209Z,40.80
2019-03-23T08:14:16.027Z,39.78
2019-03-23T08:16:48.323Z,35.77
2019-03-23T08:19:19.093Z,32.91
2019-03-23T08:21:50.007Z,37.55
2019-03-23T08:24:20.786Z,35.65
2019-03-23T08:26:51.693Z,36.53
2019-03-23T08:29:22.473Z,36.53
2019-03-23T08:31:54.509Z,33.63
2019-03-23T08:34:25.484Z,35.24
2019-03-23T08:36:56.356Z,32.88
2019-03-23T08:39:27.145Z,32.41
2019-03-23T08:41:57.958Z,32.12
2019-03-23T08:44:28.719Z,27.53
2019-03-23T08:47:00.626Z,27.74
2019-03-23T08:49:31.738Z,29.58
2019-03-23T08:52:02.518Z,30.15
2019-03-23T08:54:33.269Z,31.69
2019-03-23T08:57:04.209Z,33.05
2019-03-23T08:59:35.010Z,31.50
2019-03-23T09:02:05.975Z,30.02
2019-03-23T09:04:36.820Z,29.63
2019-03-23T09:07:07.659Z,30.32
2019-03-23T09:09:38.355Z,28.68
2019-03-23T09:12:09.315Z,33.27
2019-03-23T09:14:41.129Z,33.61
2019-03-23T09:17:12.308Z,33.57
2019-03-23T09:19:43.065Z,34.61
2019-03-23T09:22:15.007Z,34.26
2019-03-23T09:24:45.817Z,35.35
2019-03-23T09:27:16.684Z,30.96
2019-03-23T09:29:47.439Z,30.94
2019-03-23T09:32:18.267Z,31.95
2019-03-23T09:34:48.994Z,28.29
2019-03-23T09:37:19.811Z,31.88
2019-03-23T09:39:50.566Z,29.67
2019-03-23T09:42:21.352Z,30.67
2019-03-23T09:44:52.129Z,32.15
2019-03-23T09:47:23.140Z,32.52
2019-03-23T09:50:03.240Z,32.47
2019-03-23T09:52:34.079Z,31.75
2019-03-23T09:55:04.982Z,30.35
2019-03-23T09:57:35.845Z,32.51
2019-03-23T10:00:07.594Z,33.69
2019-03-23T10:02:38.429Z,31.67
2019-03-23T10:05:09.694Z,31.66
2019-03-23T10:07:40.501Z,31.95
2019-03-23T10:10:21.268Z,32.66
2019-03-23T10:12:44.333Z,32.30
2019-03-23T10:15:15.693Z,34.13
2019-03-23T10:17:46.906Z,34.15
2019-03-23T10:20:17.703Z,32.48
2019-03-23T10:22:48.519Z,30.16
2019-03-23T10:25:19.267Z,30.16
2019-03-23T10:27:50.589Z,31.63
2019-03-23T10:30:21.479Z,34.19
2019-03-23T10:32:52.354Z,31.54
2019-03-23T10:35:23.114Z,31.77
2019-03-23T10:37:53.848Z,32.36
2019-03-23T10:40:32.513Z,34.89
2019-03-23T10:42:57.442Z,31.11
2019-03-23T10:45:28.204Z,32.61
2019-03-23T10:47:59.043Z,32.61
2019-03-23T10:50:29.968Z,32.05
2019-03-23T10:53:00.742Z,32.40
2019-03-23T10:55:31.463Z,33.03
2019-03-23T10:58:02.443Z,33.59
2019-03-23T11:00:33.203Z,35.44
2019-03-23T11:03:04.067Z,34.13
2019-03-23T11:05:34.904Z,32.28
2019-03-23T11:08:05.839Z,32.28
2019-03-23T11:10:41.776Z,33.07
2019-03-23T11:13:09.444Z,34.25
2019-03-23T11:15:40.180Z,33.09
2019-03-23T11:18:11.359Z,33.77
2019-03-23T11:20:42.195Z,32.66
2019-03-23T11:23:12.969Z,32.83
2019-03-23T11:25:43.770Z,31.54
2019-03-23T11:28:14.773Z,32.18
2019-03-23T11:30:45.608Z,32.09
2019-03-23T11:33:16.430Z,32.24
2019-03-23T11:35:57.257Z,32.68
2019-03-23T11:38:19.657Z,33.85
2019-03-23T11:40:54.946Z,33.73
2019-03-23T11:43:23.210Z,33.89
2019-03-23T11:45:54.053Z,34.07
2019-03-23T11:48:24.883Z,32.42
2019-03-23T11:50:55.758Z,33.72
2019-03-23T11:53:26.540Z,33.71
2019-03-23T11:55:57.284Z,34.92
2019-03-23T11:58:28.095Z,34.73
2019-03-23T12:00:58.969Z,34.82
2019-03-23T12:03:29.823Z,35.31
2019-03-23T12:06:00.571Z,34.56
2019-03-23T12:08:31.355Z,35.51
2019-03-23T12:11:03.173Z,36.76
2019-03-23T12:13:34.309Z,35.42
2019-03-23T12:16:05.220Z,37.54
2019-03-23T12:18:36.182Z,36.82
2019-03-23T12:21:06.990Z,37.75
2019-03-23T12:23:37.911Z,37.43
2019-03-23T12:26:08.661Z,36.72
2019-03-23T12:28:39.581Z,37.35
2019-03-23T12:31:10.370Z,35.92
2019-03-23T12:33:41.157Z,34.63
2019-03-23T12:36:11.880Z,36.81
2019-03-23T12:38:42.666Z,37.18
2019-03-23T12:41:22.985Z,37.39
2019-03-23T12:43:47.154Z,36.14
2019-03-23T12:46:17.917Z,36.88
2019-03-23T12:48:50.333Z,37.02
2019-03-23T12:51:22.216Z,37.86
2019-03-23T12:53:53.001Z,37.41
2019-03-23T12:56:23.836Z,38.43
2019-03-23T12:58:54.678Z,37.85
2019-03-23T13:01:25.511Z,36.98
2019-03-23T13:03:56.315Z,38.07
2019-03-23T13:06:27.077Z,38.29
2019-03-23T13:08:57.929Z,37.80
2019-03-23T13:11:34.830Z,38.68
2019-03-23T13:14:01.276Z,36.92
2019-03-23T13:16:32.077Z,36.46
2019-03-23T13:19:04.218Z,37.60
2019-03-23T13:21:37.343Z,37.95
2019-03-23T13:24:08.231Z,36.36
2019-03-23T13:26:39.918Z,36.20
2019-03-23T13:29:10.885Z,36.31
2019-03-23T13:31:41.767Z,37.01
2019-03-23T13:34:13.982Z,37.29
2019-03-23T13:36:44.782Z,36.48
2019-03-23T13:39:15.650Z,38.21
2019-03-23T13:41:58.068Z,39.14
2019-03-23T13:44:30.769Z,38.09
2019-03-23T13:47:01.527Z,38.19
2019-03-23T13:49:32.338Z,38.45
2019-03-23T13:52:03.198Z,37.31
2019-03-23T13:54:34.110Z,37.54
2019-03-23T13:57:04.871Z,37.70
2019-03-23T13:59:37.271Z,37.76
2019-03-23T14:02:08.153Z,38.38
2019-03-23T14:04:39.040Z,38.88
2019-03-23T14:07:09.799Z,39.35
2019-03-23T14:09:40.615Z,36.41
2019-03-23T14:12:11.408Z,35.94
2019-03-23T14:14:43.333Z,36.03
2019-03-23T14:17:14.168Z,36.33
2019-03-23T14:19:45.409Z,35.97
2019-03-23T14:22:16.275Z,35.65
2019-03-23T14:24:47.090Z,35.46
2019-03-23T14:27:17.885Z,36.23
2019-03-23T14:29:48.798Z,37.48
2019-03-23T14:32:19.617Z,38.07
2019-03-23T14:34:50.420Z,37.47
2019-03-23T14:37:21.213Z,36.86
2019-03-23T14:39:51.994Z,37.30
2019-03-23T14:42:22.839Z,37.06
2019-03-23T14:44:53.744Z,37.19
2019-03-23T14:47:24.607Z,37.48
2019-03-23T14:49:55.475Z,37.17
2019-03-23T14:52:26.328Z,37.13
2019-03-23T14:54:57.139Z,38.35
2019-03-23T14:57:29.132Z,36.72
2019-03-23T15:00:00.298Z,36.82
2019-03-23T15:02:31.119Z,36.36
2019-03-23T15:05:02.014Z,36.77
2019-03-23T15:07:33.985Z,37.00
2019-03-23T15:10:05.679Z,36.74
2019-03-23T15:12:36.530Z,37.63
2019-03-23T15:15:07.646Z,37.27
2019-03-23T15:17:48.458Z,38.03
2019-03-23T15:20:12.814Z,38.20
2019-03-23T15:22:43.710Z,38.53
2019-03-23T15:25:14.503Z,39.01
2019-03-23T15:27:45.253Z,38.18
2019-03-23T15:30:16.051Z,39.46
2019-03-23T15:32:49.201Z,39.65
2019-03-23T15:35:19.948Z,39.31
2019-03-23T15:37:50.697Z,38.77
2019-03-23T15:40:21.478Z,39.27
2019-03-23T15:42:52.312Z,39.53
2019-03-23T15:45:23.598Z,40.16
2019-03-23T15:47:55.387Z,39.74
2019-03-23T15:50:26.203Z,40.26
2019-03-23T15:52:57.036Z,41.17
2019-03-23T15:55:28.850Z,40.07
2019-03-23T15:58:00.709Z,40.73
2019-03-23T16:00:31.843Z,40.68
2019-03-23T16:03:02.679Z,40.19
2019-03-23T16:05:34.704Z,40.13
2019-03-23T16:08:05.448Z,40.31
2019-03-23T16:10:37.295Z,40.44
2019-03-23T16:13:08.138Z,40.62
2019-03-23T16:15:39.345Z,40.75
2019-03-23T16:18:10.100Z,41.01
2019-03-23T16:20:41.313Z,40.58
2019-03-23T16:23:12.105Z,40.46
2019-03-23T16:25:43.002Z,41.95
2019-03-23T16:28:13.755Z,42.21
2019-03-23T16:30:44.554Z,41.95
2019-03-23T16:33:15.377Z,42.46
2019-03-23T16:35:46.246Z,42.78
2019-03-23T16:38:17.074Z,42.80
2019-03-23T16:40:47.858Z,42.87
2019-03-23T16:43:18.597Z,43.41
2019-03-23T16:45:49.589Z,43.95
2019-03-23T16:48:20.347Z,44.92
2019-03-23T16:50:51.174Z,45.44
2019-03-23T16:53:21.875Z,45.88
2019-03-23T16:55:52.718Z,45.54
2019-03-23T16:58:23.478Z,45.97
2019-03-23T17:00:54.380Z,45.96
2019-03-23T17:03:25.127Z,47.04
2019-03-23T17:05:55.962Z,48.42
2019-03-23T17:08:26.712Z,48.14
2019-03-23T17:10:57.447Z,49.58
2019-03-23T17:13:28.297Z,50.34
2019-03-23T17:15:59.272Z,53.29
2019-03-23T17:18:30.134Z,55.60
2019-03-23T17:21:01.284Z,57.40
2019-03-23T17:23:32.148Z,57.48
2019-03-23T17:26:02.976Z,57.94
2019-03-23T17:28:33.822Z,60.76
2019-03-23T17:31:04.607Z,59.98
2019-03-23T17:33:35.392Z,60.36
2019-03-23T17:36:06.263Z,60.87
2019-03-23T17:38:38.198Z,61.72
2019-03-23T17:41:10.380Z,61.98
2019-03-23T17:43:41.419Z,62.03
2019-03-23T17:46:12.484Z,63.60
2019-03-23T17:48:43.382Z,61.92
2019-03-23T17:51:14.155Z,62.45
2019-03-23T17:53:44.929Z,61.46
2019-03-23T17:56:15.719Z,61.40
2019-03-23T17:58:46.481Z,59.67
2019-03-23T18:01:19.598Z,59.75
2019-03-23T18:03:50.613Z,60.72
2019-03-23T18:06:21.478Z,60.68
2019-03-23T18:08:52.201Z,60.01
2019-03-23T18:11:23.034Z,61.06
2019-03-23T18:13:53.833Z,59.86
2019-03-23T18:16:25.038Z,59.15
2019-03-23T18:18:55.882Z,58.03
2019-03-23T18:21:26.950Z,58.08
2019-03-23T18:23:57.718Z,57.75
2019-03-23T18:26:28.492Z,57.32
2019-03-23T18:28:59.297Z,56.86
2019-03-23T18:31:30.062Z,56.58
2019-03-23T18:34:00.817Z,56.96
2019-03-23T18:36:31.665Z,56.68
2019-03-23T18:39:04.778Z,57.12
2019-03-23T18:41:35.758Z,58.12
2019-03-23T18:44:15.745Z,57.42
2019-03-23T18:46:39.233Z,57.88
2019-03-23T18:49:10.026Z,57.51
2019-03-23T18:51:40.789Z,57.12
2019-03-23T18:54:11.539Z,57.37
2019-03-23T18:56:42.293Z,58.97
2019-03-23T18:59:13.137Z,58.67
2019-03-23T19:01:43.933Z,58.06
2019-03-23T19:04:14.686Z,57.83
2019-03-23T19:06:45.456Z,58.36
2019-03-23T19:09:16.254Z,56.61
2019-03-23T19:11:47.047Z,57.92
2019-03-23T19:14:17.825Z,58.42
2019-03-23T19:16:48.639Z,59.98
2019-03-23T19:19:19.399Z,59.55
2019-03-23T19:21:51.753Z,59.35
2019-03-23T19:24:22.509Z,60.93
2019-03-23T19:26:53.279Z,60.37
2019-03-23T19:29:24.029Z,60.97
2019-03-23T19:31:55.013Z,61.23
2019-03-23T19:34:25.757Z,60.78
2019-03-23T19:36:56.658Z,61.56
2019-03-23T19:39:27.469Z,61.33
2019-03-23T19:41:58.338Z,60.07
2019-03-23T19:44:29.106Z,59.29
2019-03-23T19:46:59.935Z,60.08
2019-03-23T19:49:30.695Z,59.17
2019-03-23T19:52:01.520Z,60.21
2019-03-23T19:54:32.342Z,60.98
2019-03-23T19:57:03.162Z,60.35
2019-03-23T19:59:33.925Z,60.38
2019-03-23T20:02:04.954Z,63.31
2019-03-23T20:04:35.739Z,64.47
2019-03-23T20:07:06.717Z,64.09
2019-03-23T20:09:37.517Z,64.19
2019-03-23T20:12:10.000Z,62.41
2019-03-23T20:14:41.726Z,62.90
2019-03-23T20:17:12.719Z,63.42
2019-03-23T20:19:43.449Z,64.51
2019-03-23T20:22:14.674Z,64.83
2019-03-23T20:24:45.430Z,64.86
2019-03-23T20:27:16.276Z,62.92
2019-03-23T20:29:47.062Z,64.25
2019-03-23T20:32:18.015Z,63.69
2019-03-23T20:34:48.759Z,63.33
2019-03-23T20:37:19.542Z,63.82
2019-03-23T20:39:50.307Z,65.60
2019-03-23T20:42:21.173Z,67.64
2019-03-23T20:44:51.905Z,68.45
2019-03-23T20:47:22.733Z,68.36
2019-03-23T20:49:54.362Z,69.67
2019-03-23T20:52:25.262Z,69.84
2019-03-23T20:54:56.305Z,70.47
2019-03-23T20:57:36.991Z,70.56
2019-03-23T20:59:59.640Z,69.81
2019-03-23T21:02:30.492Z,70.11
2019-03-23T21:05:01.226Z,70.58
2019-03-23T21:07:32.056Z,70.37
2019-03-23T21:10:02.847Z,68.94
2019-03-23T21:12:33.725Z,69.95
2019-03-23T21:15:04.645Z,70.67
2019-03-23T21:17:35.641Z,71.66
2019-03-23T21:20:07.517Z,72.58
2019-03-23T21:22:38.581Z,72.46
2019-03-23T21:25:09.552Z,72.17
2019-03-23T21:27:40.334Z,72.44
2019-03-23T21:30:13.902Z,73.23
2019-03-23T21:32:44.902Z,72.96
2019-03-23T21:35:16.057Z,73.47
2019-03-23T21:37:46.944Z,72.54
2019-03-23T21:40:17.735Z,73.41
2019-03-23T21:42:49.092Z,72.65
2019-03-23T21:45:19.871Z,71.44
2019-03-23T21:47:51.057Z,72.17
2019-03-23T21:50:21.834Z,72.29
2019-03-23T21:52:52.660Z,71.60
2019-03-23T21:55:23.418Z,70.12
2019-03-23T21:57:55.274Z,71.39
2019-03-23T22:00:33.902Z,70.48
2019-03-23T22:03:04.909Z,71.65
2019-03-23T22:05:35.744Z,70.41
2019-03-23T22:08:06.503Z,71.84
2019-03-23T22:10:37.280Z,71.04
2019-03-23T22:13:08.087Z,71.39
2019-03-23T22:15:38.901Z,71.48
2019-03-23T22:18:09.688Z,72.45
2019-03-23T22:20:41.408Z,71.17
2019-03-23T22:23:12.421Z,71.92
2019-03-23T22:25:44.873Z,70.83
2019-03-23T22:28:15.740Z,70.96
2019-03-23T22:30:46.510Z,72.86
2019-03-23T22:33:17.396Z,73.70
2019-03-23T22:35:48.227Z,72.83
2019-03-23T22:38:19.018Z,75.05
2019-03-23T22:40:49.851Z,74.52
2019-03-23T22:43:20.666Z,75.37
2019-03-23T22:45:51.556Z,74.71
2019-03-23T22:48:22.352Z,73.28
2019-03-23T22:50:53.137Z,75.90
2019-03-23T22:53:23.867Z,76.52
2019-03-23T22:55:54.676Z,75.95
2019-03-23T22:58:25.452Z,76.29
2019-03-23T23:00:56.313Z,75.53
2019-03-23T23:03:27.184Z,74.07
2019-03-23T23:05:57.997Z,72.59
2019-03-23T23:08:28.767Z,73.16
2019-03-23T23:11:00.576Z,73.87
2019-03-23T23:13:31.336Z,72.58
2019-03-23T23:16:02.155Z,72.29
2019-03-23T23:18:33.127Z,74.37
2019-03-23T23:21:03.878Z,75.12
2019-03-23T23:23:34.988Z,74.75
2019-03-23T23:26:06.764Z,74.46
2019-03-23T23:28:37.576Z,73.48
2019-03-23T23:31:08.371Z,74.57
2019-03-23T23:33:39.202Z,74.57
2019-03-23T23:36:10.045Z,73.81
2019-03-23T23:38:40.834Z,74.23
2019-03-23T23:41:12.123Z,75.34
2019-03-23T23:43:42.898Z,75.46
2019-03-23T23:46:13.672Z,74.00
2019-03-23T23:48:51.266Z,75.85
2019-03-23T23:51:17.086Z,75.55
2019-03-23T23:53:47.852Z,75.47
2019-03-23T23:56:18.633Z,76.63
2019-03-23T23:58:49.390Z,77.97
